createdAt,value
2023-04-22T00:00:50.602Z,10.63
2023-04-22T00:03:54.860Z,12.52
2023-04-22T00:06:58.771Z,15.70
2023-04-22T00:10:02.208Z,10.27
2023-04-22T00:13:05.831Z,11.00
2023-04-22T00:16:09.285Z,10.57
2023-04-22T00:19:12.822Z,10.65
2023-04-22T00:22:16.147Z,9.93
2023-04-22T00:25:19.730Z,11.40
2023-04-22T00:28:23.115Z,11.02
2023-04-22T00:31:26.597Z,8.43
2023-04-22T00:34:30.043Z,9.95
2023-04-22T00:37:33.406Z,10.68
2023-04-22T00:40:36.850Z,12.05
2023-04-22T00:43:40.257Z,10.27
2023-04-22T00:46:43.759Z,10.50
2023-04-22T00:49:48.918Z,10.30
2023-04-22T00:52:52.294Z,10.68
2023-04-22T00:55:55.997Z,11.82
2023-04-22T00:59:00.120Z,10.25
2023-04-22T01:02:04.934Z,11.10
2023-04-22T01:05:11.567Z,10.45
2023-04-22T01:08:15.391Z,9.38
2023-04-22T01:11:19.159Z,10.90
2023-04-22T01:14:22.720Z,10.50
2023-04-22T01:17:26.155Z,9.80
2023-04-22T01:20:31.160Z,10.15
2023-04-22T01:23:34.901Z,10.82
2023-04-22T01:26:38.818Z,10.27
2023-04-22T01:29:42.640Z,10.80
2023-04-22T01:32:46.709Z,11.37
2023-04-22T01:35:50.271Z,11.75
2023-04-22T01:38:54.425Z,11.10
2023-04-22T01:41:58.797Z,11.35
2023-04-22T01:45:02.321Z,10.30
2023-04-22T01:48:09.130Z,11.30
2023-04-22T01:51:13.637Z,12.90
2023-04-22T01:54:17.234Z,13.90
2023-04-22T01:57:20.717Z,10.30
2023-04-22T02:00:24.219Z,11.98
2023-04-22T02:03:27.903Z,10.27
2023-04-22T02:06:32.565Z,10.02
2023-04-22T02:09:36.072Z,13.98
2023-04-22T02:12:39.739Z,11.68
2023-04-22T02:15:43.211Z,11.55
2023-04-22T02:18:46.648Z,11.57
2023-04-22T02:21:50.904Z,10.05
2023-04-22T02:24:54.387Z,12.07
2023-04-22T02:27:57.888Z,13.18
2023-04-22T02:31:01.985Z,13.88
2023-04-22T02:34:05.496Z,11.67
2023-04-22T02:37:09.132Z,10.80
2023-04-22T02:40:12.828Z,11.40
2023-04-22T02:43:16.382Z,10.27
2023-04-22T02:46:21.130Z,19.85
2023-04-22T02:49:24.647Z,14.40
2023-04-22T02:52:29.392Z,11.05
2023-04-22T02:55:32.869Z,13.80
2023-04-22T02:58:36.571Z,22.40
2023-04-22T03:01:40.533Z,15.18
2023-04-22T03:04:47.871Z,18.80
2023-04-22T03:07:51.834Z,11.95
2023-04-22T03:10:55.720Z,15.73
2023-04-22T03:13:59.779Z,12.05
2023-04-22T03:17:04.018Z,14.23
2023-04-22T03:20:08.879Z,12.13
2023-04-22T03:23:14.019Z,13.27
2023-04-22T03:26:17.398Z,12.60
2023-04-22T03:29:20.937Z,15.32
2023-04-22T03:32:24.772Z,13.32
2023-04-22T03:35:38.906Z,12.03
2023-04-22T03:38:42.680Z,12.80
2023-04-22T03:41:46.366Z,12.25
2023-04-22T03:44:50.147Z,12.68
2023-04-22T03:47:58.321Z,20.45
2023-04-22T03:51:11.375Z,15.63
2023-04-22T03:54:17.059Z,15.57
2023-04-22T03:57:27.212Z,14.27
2023-04-22T04:00:31.191Z,13.40
2023-04-22T04:03:44.921Z,15.73
2023-04-22T04:06:50.322Z,14.87
2023-04-22T04:09:53.823Z,14.90
2023-04-22T04:12:58.138Z,14.48
2023-04-22T04:16:04.290Z,16.75
2023-04-22T04:19:09.088Z,14.38
2023-04-22T04:22:15.134Z,13.83
2023-04-22T04:25:27.366Z,21.55
2023-04-22T04:28:33.041Z,17.13
2023-04-22T04:31:37.766Z,20.52
2023-04-22T04:34:42.703Z,14.55
2023-04-22T04:37:46.920Z,13.63
2023-04-22T04:40:52.864Z,13.15
2023-04-22T04:44:00.679Z,13.65
2023-04-22T04:47:09.238Z,12.13
2023-04-22T04:50:13.125Z,15.70
2023-04-22T04:53:17.455Z,13.03
2023-04-22T04:56:22.473Z,11.63
2023-04-22T04:59:26.645Z,13.13
2023-04-22T05:02:30.359Z,15.23
2023-04-22T05:05:34.039Z,16.02
2023-04-22T05:08:37.522Z,13.17
2023-04-22T05:11:45.333Z,14.80
2023-04-22T05:14:54.446Z,19.33
2023-04-22T05:17:58.173Z,14.18
2023-04-22T05:21:04.308Z,12.52
2023-04-22T05:24:09.316Z,16.10
2023-04-22T05:27:13.134Z,12.48
2023-04-22T05:30:16.568Z,15.93
2023-04-22T05:33:19.987Z,13.07
2023-04-22T05:36:23.439Z,13.13
2023-04-22T05:39:26.842Z,12.07
2023-04-22T05:42:30.364Z,16.00
2023-04-22T05:45:34.006Z,16.85
2023-04-22T05:48:37.962Z,15.75
2023-04-22T05:51:45.741Z,16.42
2023-04-22T05:54:52.589Z,13.93
2023-04-22T05:57:56.035Z,12.75
2023-04-22T06:01:25.631Z,12.32
2023-04-22T06:04:37.302Z,14.02
2023-04-22T06:07:41.820Z,11.35
2023-04-22T06:10:45.817Z,12.47
2023-04-22T06:13:49.414Z,11.43
2023-04-22T06:16:54.059Z,12.13
2023-04-22T06:19:57.494Z,11.88
2023-04-22T06:23:00.895Z,12.15
2023-04-22T06:26:04.737Z,10.13
2023-04-22T06:29:08.887Z,9.15
2023-04-22T06:32:15.139Z,10.68
2023-04-22T06:35:19.124Z,9.77
2023-04-22T06:38:22.609Z,12.90
2023-04-22T06:41:49.279Z,11.70
2023-04-22T06:45:08.561Z,12.02
2023-04-22T06:48:19.961Z,11.30
2023-04-22T06:51:43.647Z,15.38
2023-04-22T06:54:47.182Z,12.18
2023-04-22T06:57:51.742Z,11.77
2023-04-22T07:00:55.370Z,11.38
2023-04-22T07:03:58.950Z,10.38
2023-04-22T07:07:02.920Z,10.05
2023-04-22T07:10:06.813Z,13.52
2023-04-22T07:13:17.389Z,11.20
2023-04-22T07:16:20.884Z,15.15
2023-04-22T07:19:24.476Z,10.98
2023-04-22T07:22:27.860Z,9.85
2023-04-22T07:25:31.841Z,12.38
2023-04-22T07:28:35.581Z,13.93
2023-04-22T07:31:39.539Z,12.00
2023-04-22T07:34:42.946Z,10.88
2023-04-22T07:37:46.382Z,13.63
2023-04-22T07:40:49.882Z,10.30
2023-04-22T07:43:53.282Z,10.60
2023-04-22T07:46:56.807Z,10.82
2023-04-22T07:50:00.931Z,12.95
2023-04-22T07:53:04.418Z,11.45
2023-04-22T07:56:08.028Z,10.35
2023-04-22T07:59:11.873Z,11.30
2023-04-22T08:02:15.677Z,9.07
2023-04-22T08:05:19.143Z,9.75
2023-04-22T08:08:22.933Z,9.63
2023-04-22T08:11:26.844Z,10.70
2023-04-22T08:14:30.586Z,10.17
2023-04-22T08:17:34.164Z,11.48
2023-04-22T08:20:37.949Z,10.23
2023-04-22T08:23:41.498Z,10.88
2023-04-22T08:26:44.915Z,9.48
2023-04-22T08:29:48.389Z,10.57
2023-04-22T08:32:53.540Z,8.40
2023-04-22T08:35:57.052Z,11.27
2023-04-22T08:39:00.867Z,9.65
2023-04-22T08:42:05.153Z,10.23
2023-04-22T08:45:09.936Z,10.00
2023-04-22T08:48:14.104Z,10.02
2023-04-22T08:51:18.551Z,11.63
2023-04-22T08:54:23.338Z,13.02
2023-04-22T08:57:27.465Z,11.90
2023-04-22T09:00:32.462Z,10.07
2023-04-22T09:03:41.657Z,11.63
2023-04-22T09:06:45.192Z,11.13
2023-04-22T09:09:48.753Z,9.63
2023-04-22T09:12:53.522Z,12.07
2023-04-22T09:15:59.751Z,11.47
2023-04-22T09:19:03.497Z,9.65
2023-04-22T09:22:09.656Z,14.20
2023-04-22T09:25:20.087Z,11.25
2023-04-22T09:28:23.491Z,11.25
2023-04-22T09:31:27.907Z,11.30
2023-04-22T09:34:31.922Z,11.63
2023-04-22T09:37:46.577Z,13.35
2023-04-22T09:40:52.413Z,9.20
2023-04-22T09:43:58.044Z,9.55
2023-04-22T09:47:01.368Z,11.00
2023-04-22T09:50:05.688Z,9.40
2023-04-22T09:53:11.688Z,9.45
2023-04-22T09:56:15.356Z,12.10
2023-04-22T09:59:22.625Z,9.02
2023-04-22T10:02:31.998Z,7.00
2023-04-22T10:05:37.901Z,8.27
2023-04-22T10:08:41.861Z,10.18
2023-04-22T10:11:45.240Z,8.02
2023-04-22T10:14:48.879Z,7.47
2023-04-22T10:17:54.733Z,10.00
2023-04-22T10:20:59.656Z,5.43
2023-04-22T10:24:04.010Z,7.15
2023-04-22T10:27:08.472Z,6.88
2023-04-22T10:30:26.527Z,9.60
2023-04-22T10:33:34.930Z,9.23
2023-04-22T10:36:57.284Z,7.80
2023-04-22T10:40:26.984Z,9.85
2023-04-22T10:43:46.757Z,7.55
2023-04-22T10:46:53.261Z,6.00
2023-04-22T10:50:28.855Z,7.80
2023-04-22T10:53:40.752Z,11.57
2023-04-22T10:57:05.788Z,8.23
2023-04-22T11:00:35.302Z,13.95
2023-04-22T11:03:45.687Z,9.30
2023-04-22T11:07:18.429Z,7.00
2023-04-22T11:10:43.063Z,8.38
2023-04-22T11:13:51.100Z,7.60
2023-04-22T11:16:55.146Z,7.05
2023-04-22T11:19:59.833Z,8.93
2023-04-22T11:23:04.476Z,7.43
2023-04-22T11:26:07.915Z,7.93
2023-04-22T11:29:11.810Z,8.43
2023-04-22T11:32:15.668Z,9.32
2023-04-22T11:35:24.820Z,7.82
2023-04-22T11:38:28.744Z,6.97
2023-04-22T11:41:32.206Z,8.10
2023-04-22T11:44:35.670Z,7.50
2023-04-22T11:47:40.194Z,8.50
2023-04-22T11:50:44.860Z,10.75
2023-04-22T11:53:51.842Z,9.00
2023-04-22T11:56:55.568Z,9.40
2023-04-22T11:59:59.552Z,8.10
2023-04-22T12:03:05.112Z,7.72
2023-04-22T12:06:08.863Z,6.97
2023-04-22T12:09:14.027Z,8.50
2023-04-22T12:12:26.461Z,6.50
2023-04-22T12:15:39.014Z,9.05
2023-04-22T12:18:49.765Z,9.07
2023-04-22T12:21:57.118Z,7.30
2023-04-22T12:25:01.864Z,7.17
2023-04-22T12:28:05.306Z,6.47
2023-04-22T12:31:09.660Z,8.52
2023-04-22T12:34:13.097Z,6.10
2023-04-22T12:37:17.875Z,7.18
2023-04-22T12:40:21.499Z,7.27
2023-04-22T12:43:25.317Z,9.00
2023-04-22T12:46:28.713Z,5.97
2023-04-22T12:49:32.624Z,9.88
2023-04-22T12:52:36.541Z,5.97
2023-04-22T12:55:41.141Z,7.63
2023-04-22T12:58:44.567Z,6.35
2023-04-22T13:01:48.142Z,7.53
2023-04-22T13:04:51.973Z,8.20
2023-04-22T13:08:06.699Z,8.20
2023-04-22T13:11:11.415Z,8.37
2023-04-22T13:14:14.926Z,7.25
2023-04-22T13:17:18.313Z,8.60
2023-04-22T13:20:23.744Z,7.85
2023-04-22T13:23:27.756Z,6.25
2023-04-22T13:26:31.543Z,9.83
2023-04-22T13:29:35.894Z,6.70
2023-04-22T13:32:39.508Z,7.72
2023-04-22T13:35:43.314Z,7.55
2023-04-22T13:38:46.872Z,8.85
2023-04-22T13:41:50.762Z,9.27
2023-04-22T13:44:54.109Z,6.70
2023-04-22T13:47:57.537Z,6.95
2023-04-22T13:51:01.063Z,9.77
2023-04-22T13:54:05.823Z,8.88
2023-04-22T13:57:09.215Z,6.37
2023-04-22T14:00:13.059Z,7.40
2023-04-22T14:03:17.292Z,6.72
2023-04-22T14:06:21.370Z,6.97
2023-04-22T14:09:24.820Z,9.52
2023-04-22T14:12:28.318Z,13.53
2023-04-22T14:15:31.746Z,7.97
2023-04-22T14:18:37.087Z,12.60
2023-04-22T14:21:40.659Z,8.27
2023-04-22T14:24:44.099Z,8.73
2023-04-22T14:27:47.525Z,7.73
2023-04-22T14:30:50.917Z,7.50
2023-04-22T14:33:54.557Z,6.22
2023-04-22T14:36:58.080Z,6.45
2023-04-22T14:40:01.612Z,7.47
2023-04-22T14:43:07.964Z,10.50
2023-04-22T14:46:11.510Z,9.05
2023-04-22T14:49:15.085Z,6.72
2023-04-22T14:52:18.717Z,8.07
2023-04-22T14:55:23.988Z,8.48
2023-04-22T14:58:31.562Z,11.10
2023-04-22T15:01:36.087Z,11.32
2023-04-22T15:04:39.602Z,9.65
2023-04-22T15:07:43.020Z,12.13
2023-04-22T15:10:46.526Z,35.97
2023-04-22T15:13:50.271Z,15.10
2023-04-22T15:16:53.989Z,11.43
2023-04-22T15:19:58.044Z,18.83
2023-04-22T15:23:02.416Z,22.73
2023-04-22T15:26:06.417Z,24.52
2023-04-22T15:29:10.093Z,7.60
2023-04-22T15:32:13.824Z,22.08
2023-04-22T15:35:17.452Z,11.45
2023-04-22T15:38:21.264Z,12.57
2023-04-22T15:41:25.429Z,8.57
2023-04-22T15:44:30.667Z,7.47
2023-04-22T15:47:35.383Z,6.82
2023-04-22T15:50:40.837Z,7.80
2023-04-22T15:53:46.146Z,8.65
2023-04-22T15:56:49.629Z,6.88
2023-04-22T16:00:06.945Z,7.60
2023-04-22T16:03:18.994Z,11.60
2023-04-22T16:06:22.465Z,10.32
2023-04-22T16:09:26.278Z,12.57
2023-04-22T16:12:31.358Z,8.60
2023-04-22T16:15:36.551Z,9.53
2023-04-22T16:18:42.843Z,7.28
2023-04-22T16:21:51.475Z,7.68
2023-04-22T16:24:55.001Z,8.65
2023-04-22T16:27:58.777Z,11.93
2023-04-22T16:31:02.481Z,6.40
2023-04-22T16:34:06.211Z,5.93
2023-04-22T16:37:09.569Z,6.85
2023-04-22T16:40:13.174Z,7.75
2023-04-22T16:43:16.785Z,7.75
2023-04-22T16:46:21.706Z,6.70
2023-04-22T16:49:25.520Z,9.88
2023-04-22T16:52:29.363Z,9.35
2023-04-22T16:55:34.491Z,12.20
2023-04-22T16:58:39.388Z,17.50
2023-04-22T17:01:43.182Z,15.17
2023-04-22T17:04:46.780Z,11.88
2023-04-22T17:07:50.210Z,13.55
2023-04-22T17:10:54.470Z,22.35
2023-04-22T17:13:58.402Z,26.05
2023-04-22T17:17:01.981Z,22.17
2023-04-22T17:20:08.784Z,19.17
2023-04-22T17:23:12.344Z,18.05
2023-04-22T17:26:16.100Z,24.02
2023-04-22T17:29:21.898Z,24.20
2023-04-22T17:32:26.127Z,22.43
2023-04-22T17:35:29.456Z,19.38
2023-04-22T17:38:33.323Z,17.83
2023-04-22T17:41:36.685Z,23.63
2023-04-22T17:44:40.256Z,22.85
2023-04-22T17:47:43.925Z,28.73
2023-04-22T17:50:47.406Z,30.42
2023-04-22T17:53:50.979Z,27.88
2023-04-22T17:56:54.679Z,20.75
2023-04-22T17:59:58.099Z,26.80
2023-04-22T18:03:01.997Z,25.23
2023-04-22T18:06:05.662Z,29.90
2023-04-22T18:09:09.598Z,24.23
2023-04-22T18:12:13.364Z,30.33
2023-04-22T18:15:17.119Z,24.23
2023-04-22T18:18:21.124Z,38.43
2023-04-22T18:21:24.853Z,30.10
2023-04-22T18:24:28.785Z,34.15
2023-04-22T18:27:32.324Z,39.38
2023-04-22T18:30:35.879Z,34.63
2023-04-22T18:33:39.467Z,36.00
2023-04-22T18:36:43.074Z,39.70
2023-04-22T18:39:46.625Z,44.45
2023-04-22T18:42:50.634Z,36.35
2023-04-22T18:45:54.150Z,29.95
2023-04-22T18:48:57.700Z,39.53
2023-04-22T18:52:01.575Z,61.65
2023-04-22T18:55:05.232Z,32.17
2023-04-22T18:58:09.100Z,31.27
2023-04-22T19:01:12.702Z,29.58
2023-04-22T19:04:16.625Z,29.00
2023-04-22T19:07:20.502Z,27.30
2023-04-22T19:10:24.019Z,29.55
2023-04-22T19:13:29.947Z,37.17
2023-04-22T19:16:33.976Z,33.88
2023-04-22T19:19:37.401Z,34.33
2023-04-22T19:22:40.813Z,35.53
2023-04-22T19:25:44.440Z,81.07
2023-04-22T19:28:48.850Z,58.47
2023-04-22T19:31:52.548Z,57.67
2023-04-22T19:34:56.204Z,43.83
2023-04-22T19:38:00.907Z,45.15
2023-04-22T19:41:04.312Z,39.00
2023-04-22T19:44:08.000Z,42.97
2023-04-22T19:47:11.834Z,45.05
2023-04-22T19:50:16.739Z,34.80
2023-04-22T19:53:22.677Z,45.03
2023-04-22T19:56:26.869Z,31.20
2023-04-22T19:59:31.779Z,31.90
2023-04-22T20:02:36.428Z,30.25
2023-04-22T20:05:40.102Z,34.37
2023-04-22T20:08:44.480Z,33.72
2023-04-22T20:11:50.036Z,25.45
2023-04-22T20:14:53.839Z,31.83
2023-04-22T20:17:57.544Z,30.88
2023-04-22T20:21:02.072Z,39.20
2023-04-22T20:24:05.691Z,34.00
2023-04-22T20:27:09.182Z,40.75
2023-04-22T20:30:14.688Z,33.13
2023-04-22T20:33:19.257Z,39.05
2023-04-22T20:36:26.615Z,37.33
2023-04-22T20:39:30.677Z,30.45
2023-04-22T20:42:36.761Z,30.40
2023-04-22T20:45:40.355Z,28.00
2023-04-22T20:48:44.043Z,28.48
2023-04-22T20:51:48.433Z,26.60
2023-04-22T20:54:55.212Z,23.65
2023-04-22T20:57:58.829Z,25.10
2023-04-22T21:01:02.668Z,20.85
2023-04-22T21:04:07.775Z,22.00
2023-04-22T21:07:12.121Z,29.93
2023-04-22T21:10:15.775Z,24.77
2023-04-22T21:13:19.732Z,32.08
2023-04-22T21:16:27.292Z,22.58
2023-04-22T21:19:34.485Z,25.00
2023-04-22T21:22:42.514Z,23.60
2023-04-22T21:25:48.664Z,29.25
2023-04-22T21:28:52.484Z,23.20
2023-04-22T21:32:08.065Z,25.65
2023-04-22T21:35:12.034Z,24.58
2023-04-22T21:38:16.461Z,23.43
2023-04-22T21:41:19.886Z,25.23
2023-04-22T21:44:23.249Z,21.63
2023-04-22T21:47:26.698Z,25.00
2023-04-22T21:50:33.582Z,24.08
2023-04-22T21:53:37.002Z,26.60
2023-04-22T21:56:40.515Z,23.88
2023-04-22T21:59:43.953Z,17.65
2023-04-22T22:02:48.736Z,22.50
2023-04-22T22:05:52.412Z,29.33
2023-04-22T22:08:55.861Z,30.20
2023-04-22T22:11:59.303Z,26.58
2023-04-22T22:15:03.135Z,25.13
2023-04-22T22:18:07.519Z,26.88
2023-04-22T22:21:11.008Z,24.90
2023-04-22T22:24:14.496Z,23.30
2023-04-22T22:27:18.157Z,22.55
2023-04-22T22:30:23.133Z,21.40
2023-04-22T22:33:26.682Z,21.23
2023-04-22T22:36:30.028Z,15.38
2023-04-22T22:39:33.492Z,13.07
2023-04-22T22:42:37.406Z,21.38
2023-04-22T22:45:41.118Z,23.95
2023-04-22T22:48:44.589Z,24.52
2023-04-22T22:51:48.329Z,23.60
2023-04-22T22:54:51.918Z,24.73
2023-04-22T22:57:55.371Z,22.42
2023-04-22T23:00:58.971Z,21.83
2023-04-22T23:04:03.095Z,21.40
2023-04-22T23:07:06.796Z,23.20
2023-04-22T23:10:10.811Z,21.43
2023-04-22T23:13:14.150Z,19.95
2023-04-22T23:16:18.685Z,19.02
2023-04-22T23:19:22.523Z,18.40
2023-04-22T23:22:26.833Z,21.42
2023-04-22T23:25:30.512Z,17.40
2023-04-22T23:28:34.173Z,17.13
2023-04-22T23:31:39.579Z,15.80
2023-04-22T23:34:45.841Z,19.20
2023-04-22T23:37:52.019Z,18.85
2023-04-22T23:40:55.392Z,16.67
2023-04-22T23:43:58.772Z,13.60
2023-04-22T23:47:02.144Z,18.40
2023-04-22T23:50:06.038Z,16.70
2023-04-22T23:53:09.529Z,17.30
2023-04-22T23:56:14.325Z,19.53
2023-04-22T23:59:18.221Z,14.80
